Time;durP1;ratioP1;P1;durP2;ratioP2;P2;SDS_P1;SDS_P2;PMS_P1;PMS_P2;Temp;Humidity;BMP_temperature;BMP_pressure;BME280_temperature;BME280_humidity;BME280_pressure;Samples;Min_cycle;Max_cycle;Signal;HPM_P1;HPM_P2
2023/01/07 00:01:39;;;;;;;1.05;0.60;;;;;;;10.96;83.95;101388.72;5053397;28;20052;-64
2023/01/07 00:04:06;;;;;;;2.10;0.55;;;;;;;10.92;84.79;101388.75;5055627;28;20571;-61
2023/01/07 00:06:34;;;;;;;0.70;0.63;;;;;;;10.90;84.85;101393.91;5054962;28;20047;-61
2023/01/07 00:09:02;;;;;;;1.45;0.80;;;;;;;10.91;84.42;101385.28;5053520;28;20097;-60
2023/01/07 00:11:29;;;;;;;0.60;0.52;;;;;;;10.92;84.93;101381.81;5056315;28;20509;-61
2023/01/07 00:13:56;;;;;;;1.75;0.75;;;;;;;10.90;84.18;101380.97;5053853;28;20044;-61
2023/01/07 00:16:24;;;;;;;1.17;0.60;;;;;;;10.89;84.31;101384.41;5055306;28;20033;-60
2023/01/07 00:18:51;;;;;;;1.38;0.93;;;;;;;10.89;84.32;101376.63;5055855;28;20032;-61
2023/01/07 00:21:18;;;;;;;0.80;0.52;;;;;;;10.92;84.45;101375.81;5037486;28;20045;-61
2023/01/07 00:23:44;;;;;;;0.70;0.70;;;;;;;10.94;85.29;101374.94;5033148;28;20037;-61
2023/01/07 00:26:13;;;;;;;0.77;0.60;;;;;;;10.98;84.83;101374.06;5038924;28;20532;-61
2023/01/07 00:28:40;;;;;;;0.80;0.50;;;;;;;11.05;84.11;101367.16;5039038;28;20081;-61
2023/01/07 00:31:17;;;;;;;0.70;0.60;;;;;;;11.09;83.88;101363.72;5053722;28;20029;-61
2023/01/07 00:33:50;;;;;;;0.90;0.60;;;;;;;11.14;83.82;101364.56;5039178;28;20051;-61
2023/01/07 00:36:16;;;;;;;1.30;0.75;;;;;;;11.18;83.83;101361.13;5037107;28;20147;-61
2023/01/07 00:38:42;;;;;;;2.13;0.50;;;;;;;11.19;83.51;101353.34;5036121;28;20449;-61
2023/01/07 00:41:08;;;;;;;1.08;0.70;;;;;;;11.21;83.12;101356.81;5038555;28;20041;-61
2023/01/07 00:43:34;;;;;;;0.52;0.50;;;;;;;11.22;83.15;101353.34;5038747;28;20041;-61
2023/01/07 00:45:59;;;;;;;0.82;0.80;;;;;;;11.23;83.21;101351.63;5039443;28;22154;-61
2023/01/07 00:48:24;;;;;;;1.52;0.63;;;;;;;11.24;83.33;101348.19;5037880;28;20107;-62
2023/01/07 00:50:52;;;;;;;1.05;0.70;;;;;;;11.24;83.28;101337.81;5035421;28;20159;-61
2023/01/07 00:53:17;;;;;;;0.90;0.60;;;;;;;11.24;83.66;101335.25;5037407;28;20131;-61
2023/01/07 00:55:43;;;;;;;0.95;0.50;;;;;;;11.26;83.27;101336.97;5035577;28;20443;-61
2023/01/07 00:58:18;;;;;;;0.77;0.65;;;;;;;11.25;83.07;101334.34;5034808;28;20068;-61
2023/01/07 01:00:44;;;;;;;2.08;0.70;;;;;;;11.23;83.06;101324.03;5031321;28;20037;-61
2023/01/07 01:03:12;;;;;;;0.70;0.50;;;;;;;11.21;83.71;101328.34;5041704;28;20048;-61
2023/01/07 01:05:38;;;;;;;1.02;0.40;;;;;;;11.14;83.89;101325.75;5032443;28;20052;-60
2023/01/07 01:08:04;;;;;;;0.98;0.60;;;;;;;11.03;84.14;101328.38;5039475;28;20041;-61
2023/01/07 01:10:29;;;;;;;0.93;0.75;;;;;;;10.93;84.88;101325.78;5037584;28;20037;-63
2023/01/07 01:12:55;;;;;;;0.80;0.60;;;;;;;10.80;85.36;101322.38;5036721;28;20693;-64
2023/01/07 01:15:20;;;;;;;1.38;0.60;;;;;;;10.71;85.63;101323.19;5038481;28;20751;-64
2023/01/07 01:17:45;;;;;;;0.63;0.60;;;;;;;10.68;85.86;101320.63;5037962;28;20036;-64
2023/01/07 01:20:14;;;;;;;1.33;0.70;;;;;;;10.70;86.27;101324.09;5037095;28;20033;-65
2023/01/07 01:22:41;;;;;;;1.50;0.70;;;;;;;10.73;85.94;101320.63;5035951;28;20037;-65
2023/01/07 01:25:07;;;;;;;1.23;0.70;;;;;;;10.75;85.57;101317.19;5035545;28;20032;-64
2023/01/07 01:27:32;;;;;;;0.60;0.55;;;;;;;10.75;85.23;101314.59;5051647;28;20620;-64
2023/01/07 01:29:58;;;;;;;0.50;0.38;;;;;;;10.86;85.16;101324.09;5038605;28;20041;-64
2023/01/07 01:32:24;;;;;;;1.17;0.70;;;;;;;10.87;85.87;101321.47;5048693;28;20047;-64
2023/01/07 01:34:49;;;;;;;0.75;0.70;;;;;;;10.91;85.12;101320.63;5050141;28;20049;-64
2023/01/07 01:37:15;;;;;;;2.08;0.82;;;;;;;10.98;84.69;101321.50;5027087;28;20037;-64
2023/01/07 01:39:40;;;;;;;2.53;0.85;;;;;;;10.97;84.87;101323.22;5036362;28;20041;-60
2023/01/07 01:42:12;;;;;;;0.75;0.70;;;;;;;10.96;84.53;101326.66;5037671;28;20501;-61
2023/01/07 01:44:56;;;;;;;2.25;1.25;;;;;;;10.97;84.28;101322.34;5040152;28;20033;-61
2023/01/07 01:47:39;;;;;;;2.42;1.02;;;;;;;10.93;84.26;101323.19;5032828;28;20041;-61
2023/01/07 01:50:05;;;;;;;1.63;0.70;;;;;;;10.87;84.72;101325.78;5033977;28;20479;-61
2023/01/07 01:52:38;;;;;;;1.27;0.75;;;;;;;10.80;85.08;101319.78;5040169;28;20148;-61
2023/01/07 01:55:06;;;;;;;2.25;0.90;;;;;;;10.70;85.20;101316.34;5032396;28;20032;-61
2023/01/07 01:57:34;;;;;;;3.53;0.70;;;;;;;10.75;85.80;101319.75;5034864;28;20684;-61
2023/01/07 02:00:00;;;;;;;1.02;0.70;;;;;;;10.78;85.22;101309.44;5035485;28;20565;-65
2023/01/07 02:02:35;;;;;;;2.55;0.90;;;;;;;10.80;85.00;101307.69;5038453;28;20090;-65
2023/01/07 02:05:01;;;;;;;;;;;;;;;10.76;85.41;101295.66;5034858;28;20071;-65
2023/01/07 02:07:27;;;;;;;0.90;0.77;;;;;;;10.74;85.36;101281.84;5037871;28;19975;-65
2023/01/07 02:10:11;;;;;;;0.60;0.60;;;;;;;10.73;85.40;101285.31;5035359;28;20021;-66
2023/01/07 02:12:48;;;;;;;2.00;0.70;;;;;;;10.72;85.70;101288.75;5054203;28;20109;-65
2023/01/07 02:15:32;;;;;;;1.02;0.70;;;;;;;10.70;85.94;101289.59;5051299;28;20037;-65
2023/01/07 02:18:12;;;;;;;1.00;0.80;;;;;;;10.65;85.79;101289.59;5057060;28;20170;-65
2023/01/07 02:21:06;;;;;;;0.75;0.70;;;;;;;10.64;85.99;101284.44;5056776;28;20045;-65
2023/01/07 02:23:43;;;;;;;1.35;0.63;;;;;;;10.62;85.33;101283.59;5054677;28;20757;-65
2023/01/07 02:26:37;;;;;;;2.17;0.90;;;;;;;10.59;86.03;101283.59;5055737;28;20053;-65
2023/01/07 02:29:40;;;;;;;1.15;0.75;;;;;;;10.56;86.04;101281.88;5055571;28;20081;-66
2023/01/07 02:32:24;;;;;;;1.23;0.80;;;;;;;10.53;86.13;101286.19;5054299;28;20032;-65
2023/01/07 02:35:19;;;;;;;0.80;0.68;;;;;;;10.44;86.45;101278.41;5055383;28;20041;-65
2023/01/07 02:38:03;;;;;;;2.35;0.98;;;;;;;10.37;86.72;101277.53;5054973;28;20097;-65
2023/01/07 02:40:44;;;;;;;1.88;1.00;;;;;;;10.28;86.28;101285.28;5054708;28;20420;-65
2023/01/07 02:43:16;;;;;;;1.52;0.85;;;;;;;10.28;86.03;101281.84;5055054;28;20030;-65
2023/01/07 02:45:46;;;;;;;1.90;0.80;;;;;;;10.22;86.63;101283.56;5055806;28;20054;-65
2023/01/07 02:48:15;;;;;;;0.88;0.65;;;;;;;10.13;87.08;101287.84;5056965;28;20616;-66
2023/01/07 02:50:40;;;;;;;1.33;0.80;;;;;;;10.03;87.38;101294.72;5055833;28;20084;-65
2023/01/07 02:53:09;;;;;;;1.27;0.80;;;;;;;9.97;87.63;101296.44;5052729;28;20094;-65
2023/01/07 02:55:45;;;;;;;1.27;0.90;;;;;;;9.90;88.40;101284.34;5052430;28;20041;-65
2023/01/07 02:58:26;;;;;;;1.80;0.80;;;;;;;9.83;88.00;101288.63;5054973;28;20024;-65
2023/01/07 03:01:06;;;;;;;1.13;0.82;;;;;;;9.75;88.81;101280.00;5056150;28;20027;-65
2023/01/07 03:03:48;;;;;;;2.53;0.85;;;;;;;9.66;88.60;101277.41;5058974;28;20081;-65
2023/01/07 03:06:37;;;;;;;0.95;0.73;;;;;;;9.60;89.77;101269.63;5059986;28;20686;-65
2023/01/07 03:09:10;;;;;;;1.42;0.70;;;;;;;9.54;89.25;101272.16;5055488;28;20567;-64
2023/01/07 03:11:43;;;;;;;0.93;0.90;;;;;;;9.48;89.48;101278.16;5058666;28;20064;-65
2023/01/07 03:14:15;;;;;;;1.17;0.80;;;;;;;9.43;89.82;101272.13;5058323;28;20087;-68
2023/01/07 03:16:51;;;;;;;2.35;0.93;;;;;;;9.41;90.54;101267.78;5058524;28;20040;-63
2023/01/07 03:19:25;;;;;;;1.40;0.90;;;;;;;9.37;89.79;101266.06;5057982;28;20044;-63
2023/01/07 03:21:53;;;;;;;0.98;0.90;;;;;;;9.34;89.92;101266.06;5057165;28;20048;-64
2023/01/07 03:24:21;;;;;;;1.23;0.90;;;;;;;9.33;90.37;101264.31;5055235;28;20071;-63
2023/01/07 03:26:50;;;;;;;1.42;0.77;;;;;;;9.30;90.48;101259.16;5059060;28;20048;-64
2023/01/07 03:29:17;;;;;;;2.25;1.15;;;;;;;9.29;90.90;101263.44;5057128;28;20054;-63
2023/01/07 03:32:02;;;;;;;2.42;1.08;;;;;;;9.27;90.77;101260.00;5035457;28;20043;-64
2023/01/07 03:34:29;;;;;;;1.80;0.90;;;;;;;9.26;90.27;101254.84;5057340;28;20045;-64
2023/01/07 03:36:58;;;;;;;1.83;1.30;;;;;;;9.25;90.70;101253.13;5060743;28;20516;-63
2023/01/07 03:39:27;;;;;;;2.88;1.10;;;;;;;9.25;91.06;101255.69;5056790;28;20101;-63
2023/01/07 03:44:37;;;;;;;1.40;0.90;;;;;;;9.22;91.11;101242.78;5057410;28;20043;-64
2023/01/07 03:47:03;;;;;;;2.65;0.90;;;;;;;9.18;90.83;101248.78;5059548;28;20048;-64
2023/01/07 03:49:29;;;;;;;1.20;1.05;;;;;;;9.15;90.56;101239.31;5054331;28;20034;-64
2023/01/07 03:51:55;;;;;;;1.80;0.98;;;;;;;9.13;91.13;101236.75;5036919;28;20127;-64
2023/01/07 03:54:22;;;;;;;1.95;1.08;;;;;;;9.13;91.20;101241.91;5035074;28;20060;-60
2023/01/07 03:56:47;;;;;;;1.13;0.77;;;;;;;9.11;91.38;101235.84;5035449;28;20052;-60
2023/01/07 03:59:13;;;;;;;1.55;1.27;;;;;;;9.09;91.17;101239.28;5032732;28;20032;-61
2023/01/07 04:01:38;;;;;;;3.28;0.90;;;;;;;9.07;91.75;101239.28;5036940;28;20036;-61
2023/01/07 04:04:03;;;;;;;1.60;0.90;;;;;;;9.07;91.33;101241.84;5034112;28;20044;-60
2023/01/07 04:06:29;;;;;;;2.30;1.70;;;;;;;9.09;91.49;101231.53;5036923;28;20049;-61
2023/01/07 04:08:54;;;;;;;1.77;1.10;;;;;;;9.14;91.48;101230.69;5033767;28;21717;-60
2023/01/07 04:11:20;;;;;;;2.05;1.00;;;;;;;9.22;91.09;101224.72;5033230;28;20414;-61
2023/01/07 04:13:45;;;;;;;1.58;1.20;;;;;;;9.33;89.81;101216.19;5034635;28;20068;-61
2023/01/07 04:16:10;;;;;;;1.35;1.00;;;;;;;9.45;89.65;101210.19;5033540;28;20114;-62
2023/01/07 04:18:36;;;;;;;2.25;1.50;;;;;;;9.59;89.72;101208.53;5035747;28;20065;-61
2023/01/07 04:21:01;;;;;;;2.15;1.00;;;;;;;9.76;89.00;101203.44;5037262;28;20037;-61
2023/01/07 04:23:27;;;;;;;1.10;1.00;;;;;;;10.05;87.38;101201.75;5033436;28;20041;-61
2023/01/07 04:25:53;;;;;;;3.00;1.75;;;;;;;10.25;86.38;101197.44;5034003;28;20033;-61
2023/01/07 04:28:18;;;;;;;1.95;1.10;;;;;;;10.42;85.17;101198.28;5030820;28;20055;-61
2023/01/07 04:30:43;;;;;;;3.72;1.02;;;;;;;10.60;84.30;101190.50;5033220;28;20671;-61
2023/01/07 04:33:09;;;;;;;1.30;0.93;;;;;;;10.72;82.95;101187.03;5035747;28;20052;-60
2023/01/07 04:35:34;;;;;;;2.30;1.00;;;;;;;10.78;82.87;101192.19;5034902;28;20041;-60
2023/01/07 04:38:00;;;;;;;2.85;1.00;;;;;;;10.83;83.05;101189.63;5034478;28;20033;-60
2023/01/07 04:40:25;;;;;;;0.90;0.85;;;;;;;10.87;82.36;101187.00;5036772;28;20127;-61
2023/01/07 04:42:51;;;;;;;2.28;0.70;;;;;;;10.92;81.68;101185.25;5037567;28;20497;-60
2023/01/07 04:45:16;;;;;;;0.80;0.73;;;;;;;10.99;81.41;101191.28;5034199;28;20374;-60
2023/01/07 04:47:42;;;;;;;1.60;1.08;;;;;;;11.00;81.26;101180.94;5035782;28;20744;-61
2023/01/07 04:50:07;;;;;;;2.80;1.40;;;;;;;11.00;80.99;101182.66;5034621;28;20083;-60
2023/01/07 04:52:33;;;;;;;1.13;0.80;;;;;;;11.00;81.58;101187.84;5036751;28;20091;-60
2023/01/07 04:54:59;;;;;;;1.98;0.88;;;;;;;11.00;81.45;101175.78;5034271;28;20025;-61
2023/01/07 04:57:24;;;;;;;1.05;0.75;;;;;;;11.00;81.08;101178.34;5035462;28;20044;-60
2023/01/07 04:59:50;;;;;;;2.63;0.82;;;;;;;11.00;81.61;101174.91;5034833;28;20048;-65
2023/01/07 05:02:15;;;;;;;1.52;0.80;;;;;;;11.03;80.94;101173.16;5033510;28;20045;-65
2023/01/07 05:04:40;;;;;;;1.45;0.90;;;;;;;11.01;81.42;101169.69;5035777;28;20049;-65
2023/01/07 05:07:06;;;;;;;1.35;1.10;;;;;;;10.99;81.55;101174.03;5034109;28;20040;-65
2023/01/07 05:09:32;;;;;;;1.85;1.00;;;;;;;10.97;81.69;101172.31;5036649;28;20106;-65
2023/01/07 05:11:57;;;;;;;1.13;0.80;;;;;;;10.95;81.53;101167.13;5038303;28;20094;-65
2023/01/07 05:14:22;;;;;;;1.08;0.80;;;;;;;10.93;81.62;101174.06;5040869;28;20025;-66
2023/01/07 05:16:48;;;;;;;1.40;0.75;;;;;;;10.91;81.56;101175.78;5040328;28;20040;-66
2023/01/07 05:19:13;;;;;;;0.85;0.80;;;;;;;10.90;82.22;101173.19;5042212;28;20025;-65
2023/01/07 05:21:39;;;;;;;1.30;1.00;;;;;;;10.85;82.71;101170.63;5056245;28;20135;-61
2023/01/07 05:24:04;;;;;;;1.38;1.00;;;;;;;10.80;83.61;101160.28;5057380;28;20555;-61
2023/01/07 05:26:30;;;;;;;2.90;1.27;;;;;;;10.78;83.32;101162.03;5042055;28;20045;-61
2023/01/07 05:28:55;;;;;;;3.92;1.15;;;;;;;10.77;84.00;101162.06;5054500;28;20060;-61
2023/01/07 05:31:20;;;;;;;2.72;1.10;;;;;;;10.74;84.29;101162.06;5038603;28;20040;-61
2023/01/07 05:33:46;;;;;;;1.90;1.20;;;;;;;10.72;84.42;101161.19;5035106;28;20579;-61
2023/01/07 05:36:11;;;;;;;1.33;1.00;;;;;;;10.69;84.21;101162.06;5027661;28;20432;-61
2023/01/07 05:38:37;;;;;;;2.53;1.27;;;;;;;10.69;83.77;101161.19;5045359;28;20037;-61
2023/01/07 05:41:03;;;;;;;1.77;1.30;;;;;;;10.69;84.21;101150.84;5039878;28;20037;-61
2023/01/07 05:43:29;;;;;;;2.45;0.98;;;;;;;10.67;84.53;101148.28;5040768;28;20033;-61
2023/01/07 05:45:58;;;;;;;1.38;1.15;;;;;;;10.67;84.13;101142.25;5041970;28;20025;-61
2023/01/07 05:48:23;;;;;;;3.55;1.02;;;;;;;10.67;84.38;101139.66;5057406;28;20041;-61
2023/01/07 05:50:49;;;;;;;1.35;0.90;;;;;;;10.67;83.57;101134.50;5059781;28;20047;-61
2023/01/07 05:53:14;;;;;;;3.13;1.00;;;;;;;10.68;83.32;101138.81;5060411;28;20037;-61
2023/01/07 05:55:39;;;;;;;2.00;1.55;;;;;;;10.68;83.41;101136.22;5051120;28;20110;-60
2023/01/07 05:58:06;;;;;;;3.28;1.23;;;;;;;10.66;83.84;101141.38;5039202;28;20663;-60
2023/01/07 06:00:31;;;;;;;1.60;1.02;;;;;;;10.67;84.07;101124.16;5037056;28;20106;-60
2023/01/07 06:02:57;;;;;;;1.90;1.30;;;;;;;10.65;83.58;101131.06;5049281;28;20151;-60
2023/01/07 06:05:22;;;;;;;1.77;0.93;;;;;;;10.64;83.61;101126.75;5059518;28;20055;-60
2023/01/07 06:07:48;;;;;;;4.72;1.00;;;;;;;10.62;83.51;101123.31;5041197;28;20405;-60
2023/01/07 06:10:13;;;;;;;4.05;1.25;;;;;;;10.65;83.48;101116.38;5039602;28;20025;-60
2023/01/07 06:12:39;;;;;;;2.00;0.90;;;;;;;10.61;83.75;101111.25;5038095;28;20068;-60
2023/01/07 06:15:08;;;;;;;1.73;1.05;;;;;;;10.60;83.66;101119.84;5036017;28;20035;-61
2023/01/07 06:17:33;;;;;;;1.58;0.80;;;;;;;10.61;83.47;101112.09;5035511;28;20494;-61
2023/01/07 06:19:59;;;;;;;3.00;1.15;;;;;;;10.59;83.78;101121.59;5029051;28;20069;-61
2023/01/07 06:22:24;;;;;;;1.40;0.90;;;;;;;10.61;83.88;101113.84;5029635;28;20087;-62
2023/01/07 06:24:50;;;;;;;1.70;1.10;;;;;;;10.59;83.63;101105.22;5023781;28;20033;-61
2023/01/07 06:27:15;;;;;;;3.95;1.40;;;;;;;10.59;83.43;101105.22;5038749;28;20048;-61
2023/01/07 06:29:41;;;;;;;1.27;0.90;;;;;;;10.60;84.02;101104.34;5050927;28;20032;-64
2023/01/07 06:32:06;;;;;;;3.90;1.10;;;;;;;10.59;84.31;101094.88;5054158;28;20659;-65
2023/01/07 06:34:31;;;;;;;2.03;0.90;;;;;;;10.61;83.44;101098.31;5054178;28;20048;-64
2023/01/07 06:36:57;;;;;;;1.63;1.10;;;;;;;10.60;83.82;101099.16;5058158;28;20069;-64
2023/01/07 06:39:22;;;;;;;2.10;1.00;;;;;;;10.58;83.50;101094.03;5034904;28;20119;-65
2023/01/07 06:41:48;;;;;;;3.55;1.25;;;;;;;10.56;84.05;101092.31;5056333;28;20665;-64
2023/01/07 06:44:13;;;;;;;2.05;1.20;;;;;;;10.56;83.84;101092.31;5039679;28;20066;-64
2023/01/07 06:46:38;;;;;;;1.75;1.00;;;;;;;10.57;83.55;101094.00;5056578;28;20120;-64
2023/01/07 06:49:04;;;;;;;1.40;0.98;;;;;;;10.56;83.58;101089.72;5054559;28;20119;-64
2023/01/07 06:51:29;;;;;;;1.05;0.80;;;;;;;10.56;83.45;101087.16;5053781;28;20033;-64
2023/01/07 06:53:55;;;;;;;2.20;1.00;;;;;;;10.55;83.90;101082.81;5054432;28;20082;-64
2023/01/07 06:56:20;;;;;;;2.53;0.93;;;;;;;10.54;83.74;101079.38;5041016;28;20485;-65
2023/01/07 06:58:45;;;;;;;2.13;1.50;;;;;;;10.54;83.30;101086.28;5053156;28;20044;-64
2023/01/07 07:01:14;;;;;;;1.98;0.90;;;;;;;10.56;82.88;101076.81;5055641;28;20119;-63
2023/01/07 07:03:39;;;;;;;2.22;0.90;;;;;;;10.55;82.64;101075.06;5057836;28;20171;-64
2023/01/07 07:06:05;;;;;;;3.88;1.10;;;;;;;10.56;83.12;101079.38;5050890;28;20040;-64
2023/01/07 07:08:30;;;;;;;0.68;0.65;;;;;;;10.56;82.65;101077.66;5053611;28;20045;-64
2023/01/07 07:10:55;;;;;;;1.02;0.85;;;;;;;10.56;82.86;101072.50;5055597;28;20032;-63
2023/01/07 07:13:21;;;;;;;3.08;0.90;;;;;;;10.56;83.00;101077.66;5053795;28;20493;-64
2023/01/07 07:15:48;;;;;;;1.17;0.85;;;;;;;10.55;82.79;101072.50;5055658;28;20020;-64
2023/01/07 07:18:13;;;;;;;2.13;0.90;;;;;;;10.55;83.01;101072.50;5055856;28;20033;-63
2023/01/07 07:20:39;;;;;;;3.13;0.98;;;;;;;10.53;82.99;101069.94;5054518;28;20086;-64
2023/01/07 07:23:04;;;;;;;1.98;0.82;;;;;;;10.55;82.76;101069.91;5057239;28;20033;-64
2023/01/07 07:25:30;;;;;;;2.20;0.70;;;;;;;10.55;82.68;101065.59;5053057;28;20045;-63
2023/01/07 07:27:55;;;;;;;3.65;1.20;;;;;;;10.52;82.96;101065.63;5034435;28;20060;-65
2023/01/07 07:30:20;;;;;;;3.03;1.13;;;;;;;10.53;82.83;101061.31;5051001;28;20119;-65
2023/01/07 07:32:46;;;;;;;3.10;0.90;;;;;;;10.54;83.07;101057.84;5034138;28;20124;-66
2023/01/07 07:35:11;;;;;;;1.75;0.90;;;;;;;10.55;82.43;101055.25;5054222;28;20042;-65
2023/01/07 07:37:38;;;;;;;2.25;0.98;;;;;;;10.56;82.86;101058.72;5055643;28;20109;-65
2023/01/07 07:40:04;;;;;;;1.88;0.90;;;;;;;10.56;82.39;101053.53;5055394;28;20040;-65
2023/01/07 07:42:30;;;;;;;2.33;0.98;;;;;;;10.56;82.59;101045.78;5055698;28;20109;-65
2023/01/07 07:44:55;;;;;;;3.70;1.00;;;;;;;10.56;82.36;101043.22;5052197;28;21033;-65
2023/01/07 07:47:20;;;;;;;2.35;1.15;;;;;;;10.56;82.66;101038.91;5052103;28;20044;-65
2023/01/07 07:49:46;;;;;;;1.08;0.75;;;;;;;10.56;82.20;101040.63;5053396;28;20755;-64
2023/01/07 07:52:11;;;;;;;1.17;1.08;;;;;;;10.57;82.00;101042.31;5037784;28;20036;-65
2023/01/07 07:54:37;;;;;;;2.53;1.15;;;;;;;10.60;82.47;101029.38;5056742;28;20060;-65
2023/01/07 07:57:02;;;;;;;2.97;1.33;;;;;;;10.57;82.03;101021.63;5054007;28;20068;-65
2023/01/07 07:59:28;;;;;;;3.38;1.08;;;;;;;10.60;81.85;101029.38;5053230;28;20525;-65
2023/01/07 08:01:54;;;;;;;1.77;1.00;;;;;;;10.60;81.31;101025.06;5052799;28;20032;-65
2023/01/07 08:04:19;;;;;;;2.28;1.20;;;;;;;10.62;81.55;101025.91;5037832;28;20074;-65
2023/01/07 08:06:45;;;;;;;1.15;0.95;;;;;;;10.63;81.29;101017.31;5055475;28;20035;-65
2023/01/07 08:09:10;;;;;;;2.20;1.27;;;;;;;10.66;81.03;101019.88;5052700;28;20036;-64
2023/01/07 08:11:36;;;;;;;1.85;1.10;;;;;;;10.68;81.24;101015.56;5054691;28;20052;-65
2023/01/07 08:14:01;;;;;;;1.23;0.90;;;;;;;10.70;80.71;101012.97;5055436;28;20527;-64
2023/01/07 08:16:26;;;;;;;1.95;1.30;;;;;;;10.71;80.23;101002.59;5059706;28;20039;-65
2023/01/07 08:18:52;;;;;;;2.42;1.45;;;;;;;10.75;80.65;101004.31;5053708;28;20032;-66
2023/01/07 08:21:17;;;;;;;4.15;1.40;;;;;;;10.77;80.48;101005.16;5050356;28;20194;-65
2023/01/07 08:23:43;;;;;;;3.78;1.30;;;;;;;10.77;80.18;100992.25;5052939;28;20037;-65
2023/01/07 08:26:08;;;;;;;2.78;1.30;;;;;;;10.82;79.62;100991.38;5043564;28;20060;-66
2023/01/07 08:28:33;;;;;;;3.90;1.23;;;;;;;10.82;80.02;100996.53;5056707;28;20036;-65
2023/01/07 08:31:04;;;;;;;3.60;1.40;;;;;;;10.83;79.40;100990.50;5053209;28;20109;-66
2023/01/07 08:33:32;;;;;;;3.10;1.60;;;;;;;10.84;79.88;100994.78;5053498;28;20041;-65
2023/01/07 08:35:58;;;;;;;2.17;1.40;;;;;;;10.85;80.27;100997.38;5049635;28;20037;-66
2023/01/07 08:38:24;;;;;;;2.85;1.70;;;;;;;10.86;79.67;100982.72;5051338;28;20789;-65
2023/01/07 08:40:49;;;;;;;3.17;1.75;;;;;;;10.88;79.72;100991.34;5050330;28;20044;-65
2023/01/07 08:43:14;;;;;;;2.42;1.73;;;;;;;10.89;79.66;100985.31;5049457;28;20064;-65
2023/01/07 08:45:46;;;;;;;2.55;1.73;;;;;;;10.89;79.69;100982.72;5057868;28;20731;-65
2023/01/07 08:48:12;;;;;;;3.17;1.95;;;;;;;10.93;78.91;100987.84;5061815;28;20039;-65
2023/01/07 08:50:37;;;;;;;9.70;1.63;;;;;;;10.94;79.03;100976.63;5058983;28;20040;-65
2023/01/07 08:53:02;;;;;;;2.80;2.03;;;;;;;10.96;78.69;100974.91;5060076;28;20442;-65
2023/01/07 08:55:28;;;;;;;4.00;2.20;;;;;;;10.99;78.15;100969.69;5061805;28;20037;-65
2023/01/07 08:57:53;;;;;;;3.30;2.00;;;;;;;11.03;78.35;100970.53;5061210;28;20025;-65
2023/01/07 09:00:20;;;;;;;2.92;1.95;;;;;;;11.06;77.47;100965.34;5058132;28;20066;-65
2023/01/07 09:02:46;;;;;;;4.40;2.42;;;;;;;11.11;78.19;100966.16;5059423;28;20060;-66
2023/01/07 09:05:12;;;;;;;3.65;2.50;;;;;;;11.15;77.96;100965.28;5060763;28;20040;-66
2023/01/07 09:07:37;;;;;;;4.10;2.83;;;;;;;11.18;77.76;100963.53;5055902;28;20061;-62
2023/01/07 09:10:03;;;;;;;6.28;2.67;;;;;;;11.22;77.77;100951.41;5053530;28;20032;-62
2023/01/07 09:12:29;;;;;;;4.22;2.92;;;;;;;11.23;77.15;100946.25;5060772;28;20044;-62
2023/01/07 09:14:55;;;;;;;5.88;2.90;;;;;;;11.26;76.77;100938.44;5059797;28;20528;-62
2023/01/07 09:17:21;;;;;;;4.28;2.72;;;;;;;11.27;77.44;100935.00;5038008;28;20076;-62
2023/01/07 09:19:46;;;;;;;4.65;2.45;;;;;;;11.31;76.80;100925.47;5059774;28;20036;-62
2023/01/07 09:22:11;;;;;;;4.03;3.22;;;;;;;11.34;76.78;100930.59;5059869;28;20205;-64
2023/01/07 09:24:37;;;;;;;4.45;3.08;;;;;;;11.37;77.06;100935.75;5049908;28;20037;-66
2023/01/07 09:27:02;;;;;;;5.60;3.10;;;;;;;11.42;76.58;100934.00;5051631;28;20037;-65
2023/01/07 09:29:28;;;;;;;4.45;3.20;;;;;;;11.48;76.12;100931.41;5051371;28;20086;-65
2023/01/07 09:31:53;;;;;;;4.50;3.35;;;;;;;11.59;76.30;100936.47;5052795;28;20033;-65
2023/01/07 09:34:18;;;;;;;7.03;3.20;;;;;;;11.68;75.36;100921.69;5052323;28;20036;-65
2023/01/07 09:36:44;;;;;;;4.35;2.85;;;;;;;11.69;75.12;100913.03;5051641;28;20117;-65
2023/01/07 09:39:12;;;;;;;4.47;3.42;;;;;;;11.68;75.08;100906.16;5048189;28;20033;-65
2023/01/07 09:41:38;;;;;;;5.13;2.80;;;;;;;11.63;75.39;100901.91;5059095;28;20036;-65
2023/01/07 09:44:24;;;;;;;3.40;2.90;;;;;;;11.58;75.22;100898.50;5052763;28;20880;-65
2023/01/07 09:46:52;;;;;;;5.47;3.53;;;;;;;11.50;75.36;100888.22;5056946;28;20091;-65
2023/01/07 09:49:18;;;;;;;4.22;3.08;;;;;;;11.50;75.23;100888.22;5060075;28;20037;-65
2023/01/07 09:51:57;;;;;;;5.15;3.45;;;;;;;11.44;75.76;100896.06;5040769;28;21041;-65
2023/01/07 09:54:32;;;;;;;5.90;3.40;;;;;;;11.39;75.90;100899.53;5050630;28;20131;-65
2023/01/07 09:56:58;;;;;;;7.13;3.75;;;;;;;11.44;75.53;100901.22;5060550;28;20322;-65
2023/01/07 09:59:24;;;;;;;4.28;3.45;;;;;;;11.55;75.15;100901.09;5051685;28;20397;-66
2023/01/07 10:01:53;;;;;;;7.07;3.30;;;;;;;11.73;74.10;100894.00;5054830;28;20040;-65
2023/01/07 10:04:31;;;;;;;4.90;3.67;;;;;;;11.90;73.77;100876.53;5046043;28;20040;-65
2023/01/07 10:07:17;;;;;;;4.57;3.30;;;;;;;11.94;73.44;100882.53;5045424;28;20736;-65
2023/01/07 10:09:52;;;;;;;4.90;3.30;;;;;;;12.03;73.43;100881.56;5057597;28;20063;-65
2023/01/07 10:12:37;;;;;;;4.40;3.33;;;;;;;12.03;72.85;100877.25;5053116;28;20123;-65
2023/01/07 10:15:11;;;;;;;5.05;3.42;;;;;;;12.00;72.72;100873.84;5049226;28;20033;-65
2023/01/07 10:18:04;;;;;;;3.45;2.88;;;;;;;11.95;73.00;100881.69;5053566;28;20665;-65
2023/01/07 10:20:37;;;;;;;3.45;2.80;;;;;;;11.93;72.43;100877.41;5053538;28;20581;-65
2023/01/07 10:23:10;;;;;;;3.95;2.97;;;;;;;11.96;72.52;100875.59;5054420;28;20036;-65
2023/01/07 10:25:43;;;;;;;5.40;2.78;;;;;;;12.04;71.90;100870.34;5058316;28;20071;-65
2023/01/07 10:28:41;;;;;;;5.38;2.60;;;;;;;12.07;71.60;100868.56;5049988;28;20033;-65
2023/01/07 10:31:16;;;;;;;3.83;2.65;;;;;;;12.03;71.20;100855.66;5050147;28;20310;-65
2023/01/07 10:33:44;;;;;;;3.08;2.00;;;;;;;12.00;71.34;100855.69;5053466;28;20668;-65
2023/01/07 10:36:22;;;;;;;4.95;2.40;;;;;;;11.99;71.66;100862.63;5054461;28;20033;-66
2023/01/07 10:39:12;;;;;;;3.28;2.20;;;;;;;12.04;71.67;100854.78;5055659;28;20094;-65
2023/01/07 10:41:46;;;;;;;4.38;2.65;;;;;;;12.02;71.38;100846.19;5055567;28;20036;-66
2023/01/07 10:44:42;;;;;;;3.45;2.05;;;;;;;12.02;71.78;100848.78;5053975;28;20040;-65
2023/01/07 10:47:28;;;;;;;4.00;2.35;;;;;;;12.06;71.52;100848.72;5047478;28;20060;-65
2023/01/07 10:50:20;;;;;;;3.33;2.55;;;;;;;12.04;71.29;100831.47;5057077;28;20064;-65
2023/01/07 10:52:45;;;;;;;2.30;1.70;;;;;;;12.08;71.41;100844.34;5045727;28;20036;-66
2023/01/07 10:55:14;;;;;;;5.43;2.22;;;;;;;12.05;71.09;100828.03;5052022;28;20717;-64
2023/01/07 10:57:40;;;;;;;3.25;1.65;;;;;;;12.01;71.42;100832.38;5040024;28;20021;-65
2023/01/07 11:00:13;;;;;;;2.28;1.80;;;;;;;11.97;72.12;100838.47;5054069;28;20051;-65
2023/01/07 11:02:42;;;;;;;4.60;1.73;;;;;;;11.96;72.25;100834.16;5059062;28;20378;-66
2023/01/07 11:05:10;;;;;;;2.55;1.70;;;;;;;11.90;71.40;100816.09;5057163;28;20043;-65
2023/01/07 11:07:45;;;;;;;3.05;1.52;;;;;;;11.90;71.74;100813.50;5056586;28;20037;-65
2023/01/07 11:10:18;;;;;;;4.05;1.95;;;;;;;11.89;72.00;100820.44;5055088;28;20052;-64
2023/01/07 11:12:57;;;;;;;2.40;1.80;;;;;;;11.83;71.16;100799.81;5055107;28;20035;-65
2023/01/07 11:15:28;;;;;;;2.97;1.52;;;;;;;11.84;71.28;100796.31;5056670;28;20170;-66
2023/01/07 11:17:59;;;;;;;3.75;1.70;;;;;;;11.85;70.92;100774.75;5055354;28;20085;-65
2023/01/07 11:20:50;;;;;;;3.40;1.70;;;;;;;11.88;70.86;100776.44;5053536;28;20068;-65
2023/01/07 11:23:32;;;;;;;4.97;1.75;;;;;;;11.89;70.16;100765.19;5051617;28;20382;-65
2023/01/07 11:26:08;;;;;;;2.33;1.60;;;;;;;11.92;70.64;100761.72;5057839;28;20032;-65
2023/01/07 11:28:35;;;;;;;3.45;1.90;;;;;;;11.92;70.27;100762.56;5056914;28;20041;-65
2023/01/07 11:31:01;;;;;;;4.20;1.85;;;;;;;11.94;70.16;100750.44;5053063;28;20533;-65
2023/01/07 11:33:36;;;;;;;2.42;1.48;;;;;;;11.99;69.87;100745.22;5058491;28;20056;-65
2023/01/07 11:36:01;;;;;;;;;;;;;;;11.98;70.10;100743.50;5060071;28;20104;-65
2023/01/07 11:38:30;;;;;;;2.30;1.73;;;;;;;12.01;69.48;100717.53;5058221;28;20006;-65